sensor_id;sensor_type;location;lat;lon;timestamp;temperature;humidity
24049;DHT22;12250;50.956;4.746;2023-11-19T00:02:22;14.20;99.90
24049;DHT22;12250;50.956;4.746;2023-11-19T00:04:48;14.20;99.90
24049;DHT22;12250;50.956;4.746;2023-11-19T00:07:14;14.20;99.90
24049;DHT22;12250;50.956;4.746;2023-11-19T00:09:40;14.10;99.90
24049;DHT22;12250;50.956;4.746;2023-11-19T00:12:06;14.10;99.90
24049;DHT22;12250;50.956;4.746;2023-11-19T00:14:33;14.10;99.90
24049;DHT22;12250;50.956;4.746;2023-11-19T00:17:00;14.10;99.90
24049;DHT22;12250;50.956;4.746;2023-11-19T00:19:25;14.10;99.90
24049;DHT22;12250;50.956;4.746;2023-11-19T00:21:52;14.10;99.90
24049;DHT22;12250;50.956;4.746;2023-11-19T00:24:17;14.10;99.90
24049;DHT22;12250;50.956;4.746;2023-11-19T00:26:43;14.00;99.90
24049;DHT22;12250;50.956;4.746;2023-11-19T00:29:09;14.00;99.90
24049;DHT22;12250;50.956;4.746;2023-11-19T00:31:36;13.90;99.90
24049;DHT22;12250;50.956;4.746;2023-11-19T00:34:02;13.90;99.90
24049;DHT22;12250;50.956;4.746;2023-11-19T00:36:28;13.90;99.90
24049;DHT22;12250;50.956;4.746;2023-11-19T00:38:54;13.80;99.90
24049;DHT22;12250;50.956;4.746;2023-11-19T00:41:20;13.90;99.90
24049;DHT22;12250;50.956;4.746;2023-11-19T00:43:46;14.00;99.90
24049;DHT22;12250;50.956;4.746;2023-11-19T00:46:11;14.00;99.90
24049;DHT22;12250;50.956;4.746;2023-11-19T00:48:39;14.00;99.90
24049;DHT22;12250;50.956;4.746;2023-11-19T00:51:05;13.90;99.90
24049;DHT22;12250;50.956;4.746;2023-11-19T00:53:30;13.90;99.90
24049;DHT22;12250;50.956;4.746;2023-11-19T00:55:57;13.90;99.90
24049;DHT22;12250;50.956;4.746;2023-11-19T00:58:23;14.00;99.90
24049;DHT22;12250;50.956;4.746;2023-11-19T01:00:49;14.10;99.90
24049;DHT22;12250;50.956;4.746;2023-11-19T01:03:14;14.10;99.90
24049;DHT22;12250;50.956;4.746;2023-11-19T01:05:44;14.10;99.90
24049;DHT22;12250;50.956;4.746;2023-11-19T01:08:10;14.10;99.90
24049;DHT22;12250;50.956;4.746;2023-11-19T01:10:39;14.10;99.90
24049;DHT22;12250;50.956;4.746;2023-11-19T01:13:04;14.00;99.90
24049;DHT22;12250;50.956;4.746;2023-11-19T01:15:33;14.00;99.90
24049;DHT22;12250;50.956;4.746;2023-11-19T01:17:59;13.90;99.90
24049;DHT22;12250;50.956;4.746;2023-11-19T01:20:27;14.00;99.90
24049;DHT22;12250;50.956;4.746;2023-11-19T01:22:53;14.00;99.90
24049;DHT22;12250;50.956;4.746;2023-11-19T01:25:19;14.00;99.90
24049;DHT22;12250;50.956;4.746;2023-11-19T01:27:44;14.00;99.90
24049;DHT22;12250;50.956;4.746;2023-11-19T01:30:10;14.00;99.90
24049;DHT22;12250;50.956;4.746;2023-11-19T01:32:39;14.00;99.90
24049;DHT22;12250;50.956;4.746;2023-11-19T01:35:05;14.00;99.90
24049;DHT22;12250;50.956;4.746;2023-11-19T01:37:31;14.00;99.90
24049;DHT22;12250;50.956;4.746;2023-11-19T01:39:57;14.10;99.90
24049;DHT22;12250;50.956;4.746;2023-11-19T01:42:23;14.00;99.90
24049;DHT22;12250;50.956;4.746;2023-11-19T01:45:00;13.90;99.90
24049;DHT22;12250;50.956;4.746;2023-11-19T01:47:27;14.00;99.90
24049;DHT22;12250;50.956;4.746;2023-11-19T01:49:54;13.90;99.90
24049;DHT22;12250;50.956;4.746;2023-11-19T01:52:21;13.90;99.90
24049;DHT22;12250;50.956;4.746;2023-11-19T01:54:47;13.90;99.90
24049;DHT22;12250;50.956;4.746;2023-11-19T01:57:14;13.90;99.90
24049;DHT22;12250;50.956;4.746;2023-11-19T01:59:40;13.90;99.90
24049;DHT22;12250;50.956;4.746;2023-11-19T02:02:07;13.90;99.90
24049;DHT22;12250;50.956;4.746;2023-11-19T02:04:33;13.90;99.90
24049;DHT22;12250;50.956;4.746;2023-11-19T02:07:00;13.90;99.90
24049;DHT22;12250;50.956;4.746;2023-11-19T02:09:26;14.00;99.90
24049;DHT22;12250;50.956;4.746;2023-11-19T02:11:53;13.90;99.90
24049;DHT22;12250;50.956;4.746;2023-11-19T02:14:24;13.90;99.90
24049;DHT22;12250;50.956;4.746;2023-11-19T02:16:51;13.80;99.90
24049;DHT22;12250;50.956;4.746;2023-11-19T02:19:19;13.60;99.90
24049;DHT22;12250;50.956;4.746;2023-11-19T02:21:45;13.70;99.90
24049;DHT22;12250;50.956;4.746;2023-11-19T02:24:12;13.60;99.90
24049;DHT22;12250;50.956;4.746;2023-11-19T02:26:47;13.50;99.90
24049;DHT22;12250;50.956;4.746;2023-11-19T02:29:15;13.40;99.90
24049;DHT22;12250;50.956;4.746;2023-11-19T02:31:41;13.50;99.90
24049;DHT22;12250;50.956;4.746;2023-11-19T02:34:07;13.40;99.90
24049;DHT22;12250;50.956;4.746;2023-11-19T02:36:32;13.40;99.90
24049;DHT22;12250;50.956;4.746;2023-11-19T02:38:58;13.40;99.90
24049;DHT22;12250;50.956;4.746;2023-11-19T02:41:24;13.40;99.90
24049;DHT22;12250;50.956;4.746;2023-11-19T02:43:49;13.40;99.90
24049;DHT22;12250;50.956;4.746;2023-11-19T02:46:15;13.50;99.90
24049;DHT22;12250;50.956;4.746;2023-11-19T02:48:43;13.50;99.90
24049;DHT22;12250;50.956;4.746;2023-11-19T02:51:10;13.50;99.90
24049;DHT22;12250;50.956;4.746;2023-11-19T02:53:36;13.60;99.90
24049;DHT22;12250;50.956;4.746;2023-11-19T02:56:05;13.60;99.90
24049;DHT22;12250;50.956;4.746;2023-11-19T02:58:37;13.60;99.90
24049;DHT22;12250;50.956;4.746;2023-11-19T03:01:04;13.50;99.90
24049;DHT22;12250;50.956;4.746;2023-11-19T03:03:38;13.40;99.90
24049;DHT22;12250;50.956;4.746;2023-11-19T03:06:06;13.40;99.90
24049;DHT22;12250;50.956;4.746;2023-11-19T03:08:34;13.40;99.90
24049;DHT22;12250;50.956;4.746;2023-11-19T03:11:00;13.20;99.90
24049;DHT22;12250;50.956;4.746;2023-11-19T03:13:26;13.20;99.90
24049;DHT22;12250;50.956;4.746;2023-11-19T03:15:52;13.10;99.90
24049;DHT22;12250;50.956;4.746;2023-11-19T03:18:19;12.90;99.90
24049;DHT22;12250;50.956;4.746;2023-11-19T03:20:46;12.90;99.90
24049;DHT22;12250;50.956;4.746;2023-11-19T03:23:12;12.90;99.90
24049;DHT22;12250;50.956;4.746;2023-11-19T03:25:38;12.80;99.90
24049;DHT22;12250;50.956;4.746;2023-11-19T03:28:04;12.70;99.90
24049;DHT22;12250;50.956;4.746;2023-11-19T03:30:31;12.70;99.90
24049;DHT22;12250;50.956;4.746;2023-11-19T03:32:57;12.70;99.90
24049;DHT22;12250;50.956;4.746;2023-11-19T03:35:23;12.70;99.90
24049;DHT22;12250;50.956;4.746;2023-11-19T03:37:50;12.70;99.90
24049;DHT22;12250;50.956;4.746;2023-11-19T03:40:16;12.70;99.90
24049;DHT22;12250;50.956;4.746;2023-11-19T03:42:42;12.70;99.90
24049;DHT22;12250;50.956;4.746;2023-11-19T03:45:08;12.60;99.90
24049;DHT22;12250;50.956;4.746;2023-11-19T03:47:37;12.60;99.90
24049;DHT22;12250;50.956;4.746;2023-11-19T03:50:03;12.60;99.90
24049;DHT22;12250;50.956;4.746;2023-11-19T03:52:29;12.50;99.90
24049;DHT22;12250;50.956;4.746;2023-11-19T03:54:55;12.40;99.90
24049;DHT22;12250;50.956;4.746;2023-11-19T03:57:22;12.40;99.90
24049;DHT22;12250;50.956;4.746;2023-11-19T03:59:48;12.40;99.90
24049;DHT22;12250;50.956;4.746;2023-11-19T04:02:14;12.50;99.90
24049;DHT22;12250;50.956;4.746;2023-11-19T04:04:40;12.40;99.90
24049;DHT22;12250;50.956;4.746;2023-11-19T04:07:06;12.30;99.90
24049;DHT22;12250;50.956;4.746;2023-11-19T04:09:32;12.40;99.90
24049;DHT22;12250;50.956;4.746;2023-11-19T04:12:03;12.30;99.90
24049;DHT22;12250;50.956;4.746;2023-11-19T04:14:29;12.20;99.90
24049;DHT22;12250;50.956;4.746;2023-11-19T04:16:55;12.10;99.90
24049;DHT22;12250;50.956;4.746;2023-11-19T04:19:20;12.20;99.90
24049;DHT22;12250;50.956;4.746;2023-11-19T04:21:47;12.20;99.90
24049;DHT22;12250;50.956;4.746;2023-11-19T04:24:13;12.30;99.90
24049;DHT22;12250;50.956;4.746;2023-11-19T04:26:43;12.20;99.90
24049;DHT22;12250;50.956;4.746;2023-11-19T04:29:14;12.20;99.90
24049;DHT22;12250;50.956;4.746;2023-11-19T04:31:43;12.20;99.90
24049;DHT22;12250;50.956;4.746;2023-11-19T04:34:09;12.30;99.90
24049;DHT22;12250;50.956;4.746;2023-11-19T04:36:36;12.30;99.90
24049;DHT22;12250;50.956;4.746;2023-11-19T04:39:03;12.30;99.90
24049;DHT22;12250;50.956;4.746;2023-11-19T04:41:35;12.30;99.90
24049;DHT22;12250;50.956;4.746;2023-11-19T04:44:02;12.50;99.90
24049;DHT22;12250;50.956;4.746;2023-11-19T04:46:27;12.50;99.90
24049;DHT22;12250;50.956;4.746;2023-11-19T04:48:53;12.50;99.90
24049;DHT22;12250;50.956;4.746;2023-11-19T04:51:19;12.50;99.90
24049;DHT22;12250;50.956;4.746;2023-11-19T04:53:44;12.50;99.90
24049;DHT22;12250;50.956;4.746;2023-11-19T04:56:13;12.50;99.90
24049;DHT22;12250;50.956;4.746;2023-11-19T04:58:39;12.40;99.90
24049;DHT22;12250;50.956;4.746;2023-11-19T05:01:05;12.40;99.90
24049;DHT22;12250;50.956;4.746;2023-11-19T05:03:31;12.30;99.90
24049;DHT22;12250;50.956;4.746;2023-11-19T05:06:00;12.40;99.90
24049;DHT22;12250;50.956;4.746;2023-11-19T05:08:25;12.20;99.90
24049;DHT22;12250;50.956;4.746;2023-11-19T05:10:51;12.10;99.90
24049;DHT22;12250;50.956;4.746;2023-11-19T05:13:17;12.10;99.90
24049;DHT22;12250;50.956;4.746;2023-11-19T05:15:42;12.00;99.90
24049;DHT22;12250;50.956;4.746;2023-11-19T05:18:08;12.10;99.90
24049;DHT22;12250;50.956;4.746;2023-11-19T05:20:34;12.20;99.90
24049;DHT22;12250;50.956;4.746;2023-11-19T05:23:00;12.10;99.90
24049;DHT22;12250;50.956;4.746;2023-11-19T05:25:26;12.00;99.90
24049;DHT22;12250;50.956;4.746;2023-11-19T05:27:53;12.00;99.90
24049;DHT22;12250;50.956;4.746;2023-11-19T05:30:18;11.90;99.90
24049;DHT22;12250;50.956;4.746;2023-11-19T05:32:44;11.90;99.90
24049;DHT22;12250;50.956;4.746;2023-11-19T05:35:11;11.90;99.90
24049;DHT22;12250;50.956;4.746;2023-11-19T05:37:37;11.70;99.90
24049;DHT22;12250;50.956;4.746;2023-11-19T05:40:03;11.70;99.90
24049;DHT22;12250;50.956;4.746;2023-11-19T05:42:32;11.60;99.90
24049;DHT22;12250;50.956;4.746;2023-11-19T05:44:57;11.60;99.90
24049;DHT22;12250;50.956;4.746;2023-11-19T05:47:23;11.50;99.90
24049;DHT22;12250;50.956;4.746;2023-11-19T05:49:49;11.50;99.90
24049;DHT22;12250;50.956;4.746;2023-11-19T05:52:14;11.50;99.90
24049;DHT22;12250;50.956;4.746;2023-11-19T05:54:40;11.50;99.90
24049;DHT22;12250;50.956;4.746;2023-11-19T05:57:06;11.50;99.90
24049;DHT22;12250;50.956;4.746;2023-11-19T05:59:35;11.40;99.90
24049;DHT22;12250;50.956;4.746;2023-11-19T06:02:04;11.50;99.90
24049;DHT22;12250;50.956;4.746;2023-11-19T06:04:30;11.40;99.90
24049;DHT22;12250;50.956;4.746;2023-11-19T06:06:56;11.30;99.90
24049;DHT22;12250;50.956;4.746;2023-11-19T06:09:21;11.20;99.90
24049;DHT22;12250;50.956;4.746;2023-11-19T06:11:51;11.20;99.90
24049;DHT22;12250;50.956;4.746;2023-11-19T06:14:18;11.30;99.90
24049;DHT22;12250;50.956;4.746;2023-11-19T06:16:43;11.20;99.90
24049;DHT22;12250;50.956;4.746;2023-11-19T06:19:09;11.20;99.90
24049;DHT22;12250;50.956;4.746;2023-11-19T06:21:36;11.20;99.90
24049;DHT22;12250;50.956;4.746;2023-11-19T06:24:02;11.30;99.90
24049;DHT22;12250;50.956;4.746;2023-11-19T06:26:28;11.20;99.90
24049;DHT22;12250;50.956;4.746;2023-11-19T06:28:54;11.20;99.90
24049;DHT22;12250;50.956;4.746;2023-11-19T06:31:20;11.20;99.90
24049;DHT22;12250;50.956;4.746;2023-11-19T06:33:46;11.30;99.90
24049;DHT22;12250;50.956;4.746;2023-11-19T06:36:14;11.30;99.90
24049;DHT22;12250;50.956;4.746;2023-11-19T06:38:42;11.20;99.90
24049;DHT22;12250;50.956;4.746;2023-11-19T06:41:08;11.40;99.90
24049;DHT22;12250;50.956;4.746;2023-11-19T06:43:37;11.40;99.90
24049;DHT22;12250;50.956;4.746;2023-11-19T06:46:02;11.50;99.90
24049;DHT22;12250;50.956;4.746;2023-11-19T06:48:33;11.40;99.90
24049;DHT22;12250;50.956;4.746;2023-11-19T06:51:00;11.30;99.90
24049;DHT22;12250;50.956;4.746;2023-11-19T06:53:25;11.30;99.90
24049;DHT22;12250;50.956;4.746;2023-11-19T06:55:54;11.20;99.90
24049;DHT22;12250;50.956;4.746;2023-11-19T06:58:19;11.10;99.90
24049;DHT22;12250;50.956;4.746;2023-11-19T07:00:45;11.00;99.90
24049;DHT22;12250;50.956;4.746;2023-11-19T07:03:12;11.00;99.90
24049;DHT22;12250;50.956;4.746;2023-11-19T07:05:38;11.00;99.90
24049;DHT22;12250;50.956;4.746;2023-11-19T07:08:06;11.10;99.90
24049;DHT22;12250;50.956;4.746;2023-11-19T07:10:32;11.10;99.90
24049;DHT22;12250;50.956;4.746;2023-11-19T07:12:59;11.00;99.90
24049;DHT22;12250;50.956;4.746;2023-11-19T07:15:25;11.10;99.90
24049;DHT22;12250;50.956;4.746;2023-11-19T07:17:51;11.10;99.90
24049;DHT22;12250;50.956;4.746;2023-11-19T07:20:17;11.10;99.90
24049;DHT22;12250;50.956;4.746;2023-11-19T07:22:45;11.10;99.90
24049;DHT22;12250;50.956;4.746;2023-11-19T07:25:14;11.20;99.90
24049;DHT22;12250;50.956;4.746;2023-11-19T07:27:40;11.30;99.90
24049;DHT22;12250;50.956;4.746;2023-11-19T07:30:06;11.30;99.90
24049;DHT22;12250;50.956;4.746;2023-11-19T07:32:35;11.40;99.90
24049;DHT22;12250;50.956;4.746;2023-11-19T07:35:01;11.40;99.90
24049;DHT22;12250;50.956;4.746;2023-11-19T07:37:26;11.40;99.90
24049;DHT22;12250;50.956;4.746;2023-11-19T07:39:52;11.40;99.90
24049;DHT22;12250;50.956;4.746;2023-11-19T07:42:18;11.40;99.90
24049;DHT22;12250;50.956;4.746;2023-11-19T07:44:44;11.40;99.90
24049;DHT22;12250;50.956;4.746;2023-11-19T07:47:09;11.50;99.90
24049;DHT22;12250;50.956;4.746;2023-11-19T07:49:35;11.60;99.90
24049;DHT22;12250;50.956;4.746;2023-11-19T07:52:01;11.60;99.90
24049;DHT22;12250;50.956;4.746;2023-11-19T07:54:28;11.60;99.90
24049;DHT22;12250;50.956;4.746;2023-11-19T07:56:54;11.60;99.90
24049;DHT22;12250;50.956;4.746;2023-11-19T07:59:22;11.70;99.90
24049;DHT22;12250;50.956;4.746;2023-11-19T08:01:48;11.80;99.90
24049;DHT22;12250;50.956;4.746;2023-11-19T08:04:14;11.80;99.90
24049;DHT22;12250;50.956;4.746;2023-11-19T08:06:40;11.80;99.90
24049;DHT22;12250;50.956;4.746;2023-11-19T08:09:06;11.90;99.90
24049;DHT22;12250;50.956;4.746;2023-11-19T08:11:32;12.00;99.90
24049;DHT22;12250;50.956;4.746;2023-11-19T08:13:59;12.00;99.90
24049;DHT22;12250;50.956;4.746;2023-11-19T08:16:24;12.00;99.90
24049;DHT22;12250;50.956;4.746;2023-11-19T08:18:50;12.20;99.90
24049;DHT22;12250;50.956;4.746;2023-11-19T08:21:15;12.50;99.90
24049;DHT22;12250;50.956;4.746;2023-11-19T08:23:41;12.60;99.90
24049;DHT22;12250;50.956;4.746;2023-11-19T08:26:07;12.50;99.90
24049;DHT22;12250;50.956;4.746;2023-11-19T08:28:33;12.60;99.90
24049;DHT22;12250;50.956;4.746;2023-11-19T08:31:00;12.70;99.90
24049;DHT22;12250;50.956;4.746;2023-11-19T08:33:26;12.70;99.90
24049;DHT22;12250;50.956;4.746;2023-11-19T08:35:52;12.70;99.90
24049;DHT22;12250;50.956;4.746;2023-11-19T08:38:18;12.90;99.90
24049;DHT22;12250;50.956;4.746;2023-11-19T08:40:44;12.90;99.90
24049;DHT22;12250;50.956;4.746;2023-11-19T08:43:09;13.00;99.90
24049;DHT22;12250;50.956;4.746;2023-11-19T08:45:35;12.90;99.90
24049;DHT22;12250;50.956;4.746;2023-11-19T08:48:01;13.10;99.90
24049;DHT22;12250;50.956;4.746;2023-11-19T08:50:27;13.00;99.90
24049;DHT22;12250;50.956;4.746;2023-11-19T08:52:54;13.10;99.90
24049;DHT22;12250;50.956;4.746;2023-11-19T08:55:20;13.40;99.90
24049;DHT22;12250;50.956;4.746;2023-11-19T08:57:45;13.50;99.90
24049;DHT22;12250;50.956;4.746;2023-11-19T09:00:12;13.40;99.90
24049;DHT22;12250;50.956;4.746;2023-11-19T09:02:40;13.40;99.90
24049;DHT22;12250;50.956;4.746;2023-11-19T09:05:06;13.40;99.90
24049;DHT22;12250;50.956;4.746;2023-11-19T09:07:33;13.50;99.90
24049;DHT22;12250;50.956;4.746;2023-11-19T09:09:58;13.60;99.90
24049;DHT22;12250;50.956;4.746;2023-11-19T09:12:24;13.60;99.90
24049;DHT22;12250;50.956;4.746;2023-11-19T09:14:50;13.70;99.90
24049;DHT22;12250;50.956;4.746;2023-11-19T09:17:16;13.70;99.90
24049;DHT22;12250;50.956;4.746;2023-11-19T09:19:43;13.80;99.90
24049;DHT22;12250;50.956;4.746;2023-11-19T09:22:08;13.80;99.90
24049;DHT22;12250;50.956;4.746;2023-11-19T09:24:34;13.90;99.90
24049;DHT22;12250;50.956;4.746;2023-11-19T09:27:00;13.70;99.90
24049;DHT22;12250;50.956;4.746;2023-11-19T09:29:25;13.40;99.90
24049;DHT22;12250;50.956;4.746;2023-11-19T09:31:51;13.20;99.90
24049;DHT22;12250;50.956;4.746;2023-11-19T09:34:17;13.30;99.90
24049;DHT22;12250;50.956;4.746;2023-11-19T09:36:42;13.30;99.90
24049;DHT22;12250;50.956;4.746;2023-11-19T09:39:12;13.40;99.90
24049;DHT22;12250;50.956;4.746;2023-11-19T09:41:43;13.50;99.90
24049;DHT22;12250;50.956;4.746;2023-11-19T09:44:10;13.70;99.90
24049;DHT22;12250;50.956;4.746;2023-11-19T09:46:39;13.90;99.90
24049;DHT22;12250;50.956;4.746;2023-11-19T09:49:06;13.90;99.90
24049;DHT22;12250;50.956;4.746;2023-11-19T09:51:35;14.00;99.90
24049;DHT22;12250;50.956;4.746;2023-11-19T09:54:01;14.30;99.90
24049;DHT22;12250;50.956;4.746;2023-11-19T09:56:28;14.70;99.90
24049;DHT22;12250;50.956;4.746;2023-11-19T09:58:55;15.10;99.90
24049;DHT22;12250;50.956;4.746;2023-11-19T10:01:21;15.50;99.90
24049;DHT22;12250;50.956;4.746;2023-11-19T10:03:47;15.70;99.90
24049;DHT22;12250;50.956;4.746;2023-11-19T10:06:14;16.20;99.90
24049;DHT22;12250;50.956;4.746;2023-11-19T10:08:41;16.60;99.90
24049;DHT22;12250;50.956;4.746;2023-11-19T10:11:08;16.70;99.90
24049;DHT22;12250;50.956;4.746;2023-11-19T10:13:37;16.90;99.90
24049;DHT22;12250;50.956;4.746;2023-11-19T10:16:10;16.90;99.90
24049;DHT22;12250;50.956;4.746;2023-11-19T10:18:37;16.40;99.90
24049;DHT22;12250;50.956;4.746;2023-11-19T10:21:06;16.20;99.90
24049;DHT22;12250;50.956;4.746;2023-11-19T10:23:51;15.90;99.90
24049;DHT22;12250;50.956;4.746;2023-11-19T10:26:18;16.00;99.90
24049;DHT22;12250;50.956;4.746;2023-11-19T10:28:46;16.10;99.90
24049;DHT22;12250;50.956;4.746;2023-11-19T10:31:19;16.10;99.90
24049;DHT22;12250;50.956;4.746;2023-11-19T10:33:48;15.90;99.90
24049;DHT22;12250;50.956;4.746;2023-11-19T10:36:14;15.60;99.90
24049;DHT22;12250;50.956;4.746;2023-11-19T10:38:40;15.40;99.90
24049;DHT22;12250;50.956;4.746;2023-11-19T10:41:30;15.40;99.90
24049;DHT22;12250;50.956;4.746;2023-11-19T10:43:59;15.30;99.90
24049;DHT22;12250;50.956;4.746;2023-11-19T10:46:45;15.40;99.90
24049;DHT22;12250;50.956;4.746;2023-11-19T10:49:10;15.40;99.90
24049;DHT22;12250;50.956;4.746;2023-11-19T10:51:36;15.40;99.90
24049;DHT22;12250;50.956;4.746;2023-11-19T10:54:05;15.30;99.90
24049;DHT22;12250;50.956;4.746;2023-11-19T10:56:32;15.10;99.90
24049;DHT22;12250;50.956;4.746;2023-11-19T10:59:02;15.10;99.90
24049;DHT22;12250;50.956;4.746;2023-11-19T11:01:44;15.00;99.90
24049;DHT22;12250;50.956;4.746;2023-11-19T11:04:31;14.90;99.90
24049;DHT22;12250;50.956;4.746;2023-11-19T11:06:58;14.60;99.90
24049;DHT22;12250;50.956;4.746;2023-11-19T11:09:29;14.30;99.90
24049;DHT22;12250;50.956;4.746;2023-11-19T11:11:55;14.20;99.90
24049;DHT22;12250;50.956;4.746;2023-11-19T11:14:23;14.10;99.90
24049;DHT22;12250;50.956;4.746;2023-11-19T11:16:50;14.10;99.90
24049;DHT22;12250;50.956;4.746;2023-11-19T11:19:17;14.20;99.90
24049;DHT22;12250;50.956;4.746;2023-11-19T11:21:46;14.50;99.90
24049;DHT22;12250;50.956;4.746;2023-11-19T11:30:19;14.80;99.90
24049;DHT22;12250;50.956;4.746;2023-11-19T11:33:05;14.70;99.90
24049;DHT22;12250;50.956;4.746;2023-11-19T11:35:59;14.60;99.90
24049;DHT22;12250;50.956;4.746;2023-11-19T11:38:28;14.50;99.90
24049;DHT22;12250;50.956;4.746;2023-11-19T11:41:21;14.60;99.90
24049;DHT22;12250;50.956;4.746;2023-11-19T11:43:54;14.80;99.90
24049;DHT22;12250;50.956;4.746;2023-11-19T11:49:07;14.90;99.90
24049;DHT22;12250;50.956;4.746;2023-11-19T11:54:14;15.00;99.90
24049;DHT22;12250;50.956;4.746;2023-11-19T11:59:43;14.90;99.90
24049;DHT22;12250;50.956;4.746;2023-11-19T12:02:12;14.90;99.90
24049;DHT22;12250;50.956;4.746;2023-11-19T12:04:40;15.00;99.90
24049;DHT22;12250;50.956;4.746;2023-11-19T12:07:08;15.00;99.90
24049;DHT22;12250;50.956;4.746;2023-11-19T12:09:42;15.00;99.90
24049;DHT22;12250;50.956;4.746;2023-11-19T12:20:08;15.40;99.90
24049;DHT22;12250;50.956;4.746;2023-11-19T12:22:41;15.50;99.90
24049;DHT22;12250;50.956;4.746;2023-11-19T12:25:08;15.50;99.90
24049;DHT22;12250;50.956;4.746;2023-11-19T12:27:46;15.60;99.90
24049;DHT22;12250;50.956;4.746;2023-11-19T12:30:12;15.70;99.90
24049;DHT22;12250;50.956;4.746;2023-11-19T12:32:43;15.80;99.90
24049;DHT22;12250;50.956;4.746;2023-11-19T12:35:10;15.90;99.90
24049;DHT22;12250;50.956;4.746;2023-11-19T12:37:46;15.80;99.90
24049;DHT22;12250;50.956;4.746;2023-11-19T12:42:41;15.40;99.90
24049;DHT22;12250;50.956;4.746;2023-11-19T12:45:07;15.10;99.90
24049;DHT22;12250;50.956;4.746;2023-11-19T12:47:36;15.10;99.90
24049;DHT22;12250;50.956;4.746;2023-11-19T12:50:02;15.00;99.90
24049;DHT22;12250;50.956;4.746;2023-11-19T12:52:29;14.90;99.90
24049;DHT22;12250;50.956;4.746;2023-11-19T12:54:55;15.00;99.90
24049;DHT22;12250;50.956;4.746;2023-11-19T12:57:39;15.00;99.90
24049;DHT22;12250;50.956;4.746;2023-11-19T13:00:05;15.00;99.90
24049;DHT22;12250;50.956;4.746;2023-11-19T13:02:49;15.10;99.90
24049;DHT22;12250;50.956;4.746;2023-11-19T13:05:28;15.20;99.90
24049;DHT22;12250;50.956;4.746;2023-11-19T13:08:04;15.10;99.90
24049;DHT22;12250;50.956;4.746;2023-11-19T13:10:32;14.90;99.90
24049;DHT22;12250;50.956;4.746;2023-11-19T13:13:08;14.70;99.90
24049;DHT22;12250;50.956;4.746;2023-11-19T13:15:34;14.50;99.90
24049;DHT22;12250;50.956;4.746;2023-11-19T13:18:01;14.40;99.90
24049;DHT22;12250;50.956;4.746;2023-11-19T13:20:28;14.30;99.90
24049;DHT22;12250;50.956;4.746;2023-11-19T13:23:01;14.30;99.90
24049;DHT22;12250;50.956;4.746;2023-11-19T13:25:27;14.40;99.90
24049;DHT22;12250;50.956;4.746;2023-11-19T13:27:54;14.50;99.90
24049;DHT22;12250;50.956;4.746;2023-11-19T13:30:21;14.40;99.90
24049;DHT22;12250;50.956;4.746;2023-11-19T13:32:48;14.40;99.90
24049;DHT22;12250;50.956;4.746;2023-11-19T13:35:14;14.50;99.90
24049;DHT22;12250;50.956;4.746;2023-11-19T13:37:40;14.60;99.90
24049;DHT22;12250;50.956;4.746;2023-11-19T13:40:07;14.60;99.90
24049;DHT22;12250;50.956;4.746;2023-11-19T13:42:33;14.60;99.90
24049;DHT22;12250;50.956;4.746;2023-11-19T13:44:58;14.50;99.90
24049;DHT22;12250;50.956;4.746;2023-11-19T13:47:24;14.50;99.90
24049;DHT22;12250;50.956;4.746;2023-11-19T13:49:50;14.60;99.90
24049;DHT22;12250;50.956;4.746;2023-11-19T13:52:15;14.70;99.90
24049;DHT22;12250;50.956;4.746;2023-11-19T13:54:41;14.80;99.90
24049;DHT22;12250;50.956;4.746;2023-11-19T13:57:08;15.00;99.90
24049;DHT22;12250;50.956;4.746;2023-11-19T13:59:39;15.00;99.90
24049;DHT22;12250;50.956;4.746;2023-11-19T14:02:06;14.80;99.90
24049;DHT22;12250;50.956;4.746;2023-11-19T14:04:33;14.70;99.90
24049;DHT22;12250;50.956;4.746;2023-11-19T14:06:59;14.40;99.90
24049;DHT22;12250;50.956;4.746;2023-11-19T14:09:24;14.20;99.90
24049;DHT22;12250;50.956;4.746;2023-11-19T14:11:50;14.10;99.90
24049;DHT22;12250;50.956;4.746;2023-11-19T14:14:17;14.00;99.90
24049;DHT22;12250;50.956;4.746;2023-11-19T14:16:42;13.90;99.90
24049;DHT22;12250;50.956;4.746;2023-11-19T14:19:08;13.90;99.90
24049;DHT22;12250;50.956;4.746;2023-11-19T14:21:33;14.00;99.90
24049;DHT22;12250;50.956;4.746;2023-11-19T14:23:59;14.00;99.90
24049;DHT22;12250;50.956;4.746;2023-11-19T14:26:25;14.20;99.90
24049;DHT22;12250;50.956;4.746;2023-11-19T14:28:51;14.30;99.90
24049;DHT22;12250;50.956;4.746;2023-11-19T14:31:16;14.40;99.90
24049;DHT22;12250;50.956;4.746;2023-11-19T14:33:42;14.50;99.90
24049;DHT22;12250;50.956;4.746;2023-11-19T14:36:08;14.50;99.90
24049;DHT22;12250;50.956;4.746;2023-11-19T14:38:33;14.40;99.90
24049;DHT22;12250;50.956;4.746;2023-11-19T14:40:59;14.40;99.90
24049;DHT22;12250;50.956;4.746;2023-11-19T14:43:25;14.40;99.90
24049;DHT22;12250;50.956;4.746;2023-11-19T14:45:51;14.20;99.90
24049;DHT22;12250;50.956;4.746;2023-11-19T14:48:17;14.10;99.90
24049;DHT22;12250;50.956;4.746;2023-11-19T14:50:43;14.00;99.90
24049;DHT22;12250;50.956;4.746;2023-11-19T14:53:10;14.00;99.90
24049;DHT22;12250;50.956;4.746;2023-11-19T14:55:36;13.80;99.90
24049;DHT22;12250;50.956;4.746;2023-11-19T14:58:01;13.80;99.90
24049;DHT22;12250;50.956;4.746;2023-11-19T15:00:27;13.70;99.90
24049;DHT22;12250;50.956;4.746;2023-11-19T15:02:53;13.50;99.90
24049;DHT22;12250;50.956;4.746;2023-11-19T15:05:18;13.40;99.90
24049;DHT22;12250;50.956;4.746;2023-11-19T15:07:45;13.30;99.90
24049;DHT22;12250;50.956;4.746;2023-11-19T15:10:10;13.30;99.90
24049;DHT22;12250;50.956;4.746;2023-11-19T15:12:38;13.20;99.90
24049;DHT22;12250;50.956;4.746;2023-11-19T15:15:09;13.30;99.90
24049;DHT22;12250;50.956;4.746;2023-11-19T15:17:36;13.30;99.90
24049;DHT22;12250;50.956;4.746;2023-11-19T15:20:03;13.30;99.90
24049;DHT22;12250;50.956;4.746;2023-11-19T15:22:29;13.30;99.90
24049;DHT22;12250;50.956;4.746;2023-11-19T15:24:54;13.40;99.90
24049;DHT22;12250;50.956;4.746;2023-11-19T15:27:20;13.40;99.90
24049;DHT22;12250;50.956;4.746;2023-11-19T15:29:46;13.40;99.90
24049;DHT22;12250;50.956;4.746;2023-11-19T15:32:11;13.40;99.90
24049;DHT22;12250;50.956;4.746;2023-11-19T15:34:37;13.50;99.90
24049;DHT22;12250;50.956;4.746;2023-11-19T15:37:05;13.50;99.90
24049;DHT22;12250;50.956;4.746;2023-11-19T15:39:30;13.50;99.90
24049;DHT22;12250;50.956;4.746;2023-11-19T15:41:57;13.60;99.90
24049;DHT22;12250;50.956;4.746;2023-11-19T15:44:25;13.50;99.90
24049;DHT22;12250;50.956;4.746;2023-11-19T15:46:50;13.50;99.90
24049;DHT22;12250;50.956;4.746;2023-11-19T15:49:16;13.50;99.90
24049;DHT22;12250;50.956;4.746;2023-11-19T15:51:42;13.50;99.90
24049;DHT22;12250;50.956;4.746;2023-11-19T15:54:08;13.40;99.90
24049;DHT22;12250;50.956;4.746;2023-11-19T15:56:34;13.40;99.90